createdAt,value
2022-08-04T00:00:26.061Z,61.72
2022-08-04T00:05:41.376Z,61.60
2022-08-04T00:10:49.552Z,61.93
2022-08-04T00:15:54.464Z,61.21
2022-08-04T00:21:05.518Z,61.50
2022-08-04T00:26:09.497Z,61.43
2022-08-04T00:31:13.137Z,61.33
2022-08-04T00:36:21.334Z,61.57
2022-08-04T00:41:31.725Z,61.68
2022-08-04T00:47:01.087Z,61.69
2022-08-04T00:52:32.750Z,62.10
2022-08-04T00:57:52.515Z,62.02
2022-08-04T01:03:10.908Z,61.34
2022-08-04T01:08:35.569Z,61.76
2022-08-04T01:13:55.710Z,61.31
2022-08-04T01:19:02.669Z,61.69
2022-08-04T01:24:20.611Z,61.56
2022-08-04T01:29:30.498Z,61.47
2022-08-04T01:34:52.401Z,61.90
2022-08-04T01:40:04.034Z,62.16
2022-08-04T01:45:11.351Z,62.31
2022-08-04T01:50:15.400Z,62.45
2022-08-04T01:55:18.430Z,61.98
2022-08-04T02:00:27.010Z,62.10
2022-08-04T02:06:04.023Z,61.96
2022-08-04T02:11:04.856Z,61.55
2022-08-04T02:16:17.518Z,61.75
2022-08-04T02:21:21.651Z,61.23
2022-08-04T02:26:29.295Z,60.92
2022-08-04T02:31:39.751Z,62.24
2022-08-04T02:36:44.063Z,61.89
2022-08-04T02:41:48.332Z,62.21
2022-08-04T02:46:54.334Z,63.01
2022-08-04T02:51:58.742Z,62.87
2022-08-04T02:57:02.375Z,62.95
2022-08-04T03:02:12.087Z,62.73
2022-08-04T03:07:59.353Z,62.62
2022-08-04T03:13:28.915Z,62.40
2022-08-04T03:19:17.829Z,62.34
2022-08-04T03:25:00.001Z,62.12
2022-08-04T03:30:08.917Z,61.43
2022-08-04T03:35:36.589Z,61.27
2022-08-04T03:41:04.802Z,61.37
2022-08-04T03:46:42.681Z,60.87
2022-08-04T03:52:16.023Z,60.71
2022-08-04T03:57:36.554Z,60.49
2022-08-04T04:03:28.570Z,60.43
2022-08-04T04:09:08.090Z,60.29
2022-08-04T04:14:41.914Z,60.51
2022-08-04T04:20:11.741Z,60.24
2022-08-04T04:25:26.827Z,60.05
2022-08-04T04:30:40.284Z,60.05
2022-08-04T04:35:58.895Z,60.35
2022-08-04T04:41:17.767Z,60.12
2022-08-04T04:46:33.216Z,60.23
2022-08-04T04:51:44.705Z,60.34
2022-08-04T04:56:51.857Z,60.33
2022-08-04T05:02:32.059Z,60.31
2022-08-04T05:07:58.568Z,60.70
2022-08-04T05:14:37.200Z,60.50
2022-08-04T05:18:47.845Z,60.09
2022-08-04T05:23:57.816Z,60.72
2022-08-04T05:29:05.824Z,60.52
2022-08-04T05:34:13.882Z,60.40
2022-08-04T05:39:20.580Z,60.47
2022-08-04T05:44:24.732Z,60.40
2022-08-04T05:49:30.308Z,60.10
2022-08-04T05:54:35.180Z,60.24
2022-08-04T05:59:42.318Z,60.69
2022-08-04T06:04:50.052Z,60.56
2022-08-04T06:09:52.980Z,60.64
2022-08-04T06:14:59.785Z,59.82
2022-08-04T06:20:19.281Z,59.76
2022-08-04T06:25:30.530Z,59.49
2022-08-04T06:30:34.376Z,59.02
2022-08-04T06:35:38.838Z,59.42
2022-08-04T06:40:42.498Z,58.10
2022-08-04T06:45:45.723Z,58.04
2022-08-04T06:51:24.725Z,57.88
2022-08-04T06:56:15.822Z,57.92
2022-08-04T07:01:21.704Z,57.48
2022-08-04T07:06:26.020Z,57.95
2022-08-04T07:11:29.552Z,58.88
2022-08-04T07:16:43.397Z,59.13
2022-08-04T07:22:18.853Z,59.06
2022-08-04T07:27:10.800Z,58.58
2022-08-04T07:32:14.701Z,58.57
2022-08-04T07:37:19.938Z,58.50
2022-08-04T07:42:23.379Z,58.52
2022-08-04T07:47:27.461Z,58.66
2022-08-04T07:52:32.459Z,58.62
2022-08-04T07:57:41.530Z,58.20
2022-08-04T08:02:49.333Z,58.62
2022-08-04T08:07:55.041Z,58.20
2022-08-04T08:12:58.533Z,57.72
2022-08-04T08:18:01.363Z,58.10
2022-08-04T08:23:06.071Z,58.47
2022-08-04T08:28:08.883Z,58.42
2022-08-04T08:33:16.165Z,58.57
2022-08-04T08:38:28.616Z,58.63
2022-08-04T08:44:00.192Z,58.96
2022-08-04T08:50:01.049Z,59.24
2022-08-04T08:55:20.025Z,59.34
2022-08-04T09:00:31.899Z,59.39
2022-08-04T09:05:58.665Z,59.60
2022-08-04T09:11:09.815Z,59.71
2022-08-04T09:16:19.001Z,59.79
2022-08-04T09:21:31.711Z,59.88
2022-08-04T09:26:46.568Z,60.31
2022-08-04T09:32:07.123Z,60.87
2022-08-04T09:37:18.276Z,60.31
2022-08-04T09:42:35.918Z,59.62
2022-08-04T09:47:47.688Z,59.51
2022-08-04T09:52:59.327Z,59.20
2022-08-04T09:58:10.018Z,59.11
2022-08-04T10:03:19.622Z,58.65
2022-08-04T10:08:38.015Z,58.61
2022-08-04T10:13:53.150Z,58.27
2022-08-04T10:19:07.964Z,58.07
2022-08-04T10:24:32.136Z,57.45
2022-08-04T10:29:43.911Z,57.09
2022-08-04T10:35:00.845Z,56.89
2022-08-04T10:40:25.689Z,56.55
2022-08-04T10:45:37.728Z,56.04
2022-08-04T10:50:53.098Z,55.97
2022-08-04T10:56:06.553Z,56.05
2022-08-04T11:02:01.282Z,56.64
2022-08-04T11:06:46.868Z,57.42
2022-08-04T11:12:00.737Z,57.42
2022-08-04T11:17:09.235Z,57.61
2022-08-04T11:22:16.537Z,57.67
2022-08-04T11:27:29.164Z,57.84
2022-08-04T11:32:42.239Z,57.92
2022-08-04T11:37:51.040Z,58.09
2022-08-04T11:42:59.160Z,57.95
2022-08-04T11:48:11.052Z,58.20
2022-08-04T11:53:19.344Z,58.54
2022-08-04T11:58:23.135Z,58.69
2022-08-04T12:03:37.646Z,58.98
2022-08-04T12:08:59.401Z,59.03
2022-08-04T12:14:11.152Z,59.35
2022-08-04T12:19:22.462Z,59.43
2022-08-04T12:24:32.512Z,59.36
2022-08-04T12:29:37.669Z,59.64
2022-08-04T12:34:45.835Z,59.50
2022-08-04T12:40:28.956Z,59.88
2022-08-04T12:45:15.647Z,59.74
2022-08-04T12:50:21.735Z,59.92
2022-08-04T12:55:29.720Z,60.67
2022-08-04T13:00:43.765Z,60.54
2022-08-04T13:05:53.989Z,61.89
2022-08-04T13:10:59.867Z,62.00
2022-08-04T13:16:08.479Z,62.05
2022-08-04T13:21:22.779Z,62.50
2022-08-04T13:26:42.821Z,62.46
2022-08-04T13:31:53.945Z,62.60
2022-08-04T13:36:59.436Z,62.51
2022-08-04T13:42:08.944Z,62.78
2022-08-04T13:47:16.488Z,63.01
2022-08-04T13:52:27.232Z,62.95
2022-08-04T13:57:32.465Z,62.93
2022-08-04T14:02:40.611Z,63.04
2022-08-04T14:07:48.264Z,63.06
2022-08-04T14:12:53.131Z,63.58
2022-08-04T14:17:56.103Z,63.85
2022-08-04T14:23:02.339Z,63.75
2022-08-04T14:28:06.036Z,63.62
2022-08-04T14:34:02.712Z,63.81
2022-08-04T14:38:47.411Z,63.83
2022-08-04T14:43:52.732Z,63.93
2022-08-04T14:49:04.245Z,64.10
2022-08-04T14:54:18.799Z,64.02
2022-08-04T14:59:23.489Z,63.97
2022-08-04T15:04:27.749Z,63.88
2022-08-04T15:09:32.828Z,64.23
2022-08-04T15:14:38.195Z,64.02
2022-08-04T15:19:41.721Z,63.79
2022-08-04T15:25:00.568Z,63.51
2022-08-04T15:30:06.393Z,63.62
2022-08-04T15:35:12.766Z,63.56
2022-08-04T15:40:26.921Z,63.70
2022-08-04T15:46:35.010Z,63.56
2022-08-04T15:51:14.203Z,63.53
2022-08-04T15:56:48.285Z,63.38
2022-08-04T16:02:45.890Z,62.90
2022-08-04T16:07:56.689Z,62.71
2022-08-04T16:13:08.570Z,62.90
2022-08-04T16:18:26.356Z,62.76
2022-08-04T16:24:07.553Z,63.08
2022-08-04T16:29:30.462Z,62.60
2022-08-04T16:34:48.155Z,62.62
2022-08-04T16:40:35.205Z,62.46
2022-08-04T16:45:52.538Z,62.86
2022-08-04T16:50:58.183Z,62.71
2022-08-04T16:56:10.771Z,62.84
2022-08-04T17:01:32.135Z,62.70
2022-08-04T17:06:38.711Z,62.83
2022-08-04T17:11:43.021Z,62.74
2022-08-04T17:16:47.132Z,62.83
2022-08-04T17:21:50.092Z,62.39
2022-08-04T17:26:54.473Z,62.63
2022-08-04T17:31:59.165Z,62.96
2022-08-04T17:42:30.274Z,62.83
2022-08-04T17:47:38.282Z,62.52
2022-08-04T17:52:45.439Z,63.02
2022-08-04T17:57:52.222Z,62.77
2022-08-04T18:02:57.055Z,62.74
2022-08-04T18:08:39.535Z,62.90
2022-08-04T18:13:42.313Z,62.75
2022-08-04T18:19:10.493Z,64.02
2022-08-04T18:24:14.018Z,63.83
2022-08-04T18:29:31.303Z,63.50
2022-08-04T18:34:40.747Z,63.80
2022-08-04T18:40:25.148Z,64.33
2022-08-04T18:45:20.350Z,64.22
2022-08-04T18:51:00.805Z,64.25
2022-08-04T18:55:56.536Z,63.96
2022-08-04T19:01:01.196Z,63.91
2022-08-04T19:06:07.510Z,64.08
2022-08-04T19:11:38.193Z,63.62
2022-08-04T19:16:34.944Z,63.92
2022-08-04T19:21:59.299Z,64.07
2022-08-04T19:27:07.050Z,63.61
2022-08-04T19:32:14.023Z,63.63
2022-08-04T19:37:57.491Z,64.37
2022-08-04T19:42:43.313Z,64.06
2022-08-04T19:48:12.101Z,63.47
2022-08-04T19:53:18.902Z,64.05
2022-08-04T19:58:26.317Z,64.08
2022-08-04T20:04:08.838Z,64.13
2022-08-04T20:08:53.708Z,63.88
2022-08-04T20:13:58.236Z,63.81
2022-08-04T20:19:04.196Z,62.71
2022-08-04T20:24:41.515Z,61.50
2022-08-04T20:29:40.300Z,60.15
2022-08-04T20:34:43.794Z,59.32
2022-08-04T20:39:54.894Z,59.77
2022-08-04T20:44:58.052Z,58.56
2022-08-04T20:50:01.682Z,58.62
2022-08-04T20:55:07.095Z,57.85
2022-08-04T21:00:13.127Z,57.76
2022-08-04T21:05:16.484Z,58.32
2022-08-04T21:10:21.987Z,57.38
2022-08-04T21:15:50.748Z,57.27
2022-08-04T21:20:48.715Z,57.27
2022-08-04T21:25:58.130Z,56.54
2022-08-04T21:31:02.519Z,56.60
2022-08-04T21:36:14.955Z,55.72
2022-08-04T21:41:24.923Z,55.67
2022-08-04T21:46:31.256Z,54.86
2022-08-04T21:51:57.909Z,55.70
2022-08-04T21:56:59.633Z,55.28
2022-08-04T22:02:06.492Z,55.61
2022-08-04T22:07:10.606Z,56.42
2022-08-04T22:12:14.890Z,55.73
2022-08-04T22:17:25.496Z,55.94
2022-08-04T22:22:29.431Z,56.26
2022-08-04T22:27:55.046Z,55.75
2022-08-04T22:32:58.279Z,55.82
2022-08-04T22:38:07.787Z,55.72
2022-08-04T22:43:31.678Z,56.03
2022-08-04T22:48:38.327Z,55.24
2022-08-04T22:53:41.771Z,55.58
2022-08-04T22:58:53.129Z,55.13
2022-08-04T23:03:57.432Z,55.07
2022-08-04T23:09:00.112Z,55.27
2022-08-04T23:14:06.186Z,55.85
2022-08-04T23:19:09.503Z,55.75
2022-08-04T23:24:12.984Z,56.07
2022-08-04T23:29:17.570Z,55.75
2022-08-04T23:34:20.274Z,54.04
2022-08-04T23:39:23.071Z,53.92
2022-08-04T23:44:28.825Z,52.95
2022-08-04T23:49:43.348Z,53.80
2022-08-04T23:54:47.360Z,53.18
2022-08-04T23:59:55.021Z,52.14
